Карточка аэропорта UHWW

Внимание!
Информация на этой странице в стадии наполнения.
Если вы не увидели какой-то информации, или заметили неточность - пожалуйста сообщите нам!
Спасибо!
Команда RU-STAFF
Название аэропортаКневичи
Название аэропорта (англ.)Knevichi
Превышение59 ft. (18 m.)
Координаты43°23.886', 132°8.9400000000001'
Высота перехода7000ft
Эшелон переходаQNH>=1013hPa: FL80; 1013hPa>QNH>=977hPa: FL90; QNH<977hPa: FL100
Коды ответчика5050-5077
Зона ОрВДХабаровск РПИ (UHHH)
Данные METARUHWW 122130Z 00000MPS 9999 NSC 17/17 Q1008 R25L/0///70 NOSIG RMK QFE755
Проноз погоды (TAF)UHWW 122133Z 1222/1321 16003MPS 9999 SCT025 BECMG 1223/1224 20003G08MPS BKN020CB TEMPO 1300/1310 -TSRA FEW010 BKN016CB
NOTAMshow/hide NOTAM
AWOS   TABLE

Информация о ВПП

ВПП Длина ВПП (м.) Покрытие Курс ВПП Частота ILS
07R3500Бетон71109.3
25L3500Бетон251110.1

Диспетчерские позиции

Позывной Наименование органа УВД Частота
UHWW_TWRВладивосток-Старт119.5
UHWW_R_APPВладивосток-Круг123.4
UHWW_GNDВладивосток-Руление121.7
UHWW_APPВладивосток-Подход124.7
UHWW-FM1Машина сопровождения121.700



Спутниковое изображение